createdAt,value
2023-04-25T05:03:18.516Z,9.87
2023-04-25T05:04:18.569Z,10.30
2023-04-25T05:05:17.608Z,9.30
2023-04-25T05:06:18.573Z,8.24
2023-04-25T05:07:18.667Z,7.57
2023-04-25T05:08:17.474Z,8.85
2023-04-25T05:09:17.520Z,10.46
2023-04-25T05:10:17.553Z,10.33
2023-04-25T05:11:17.482Z,9.63
2023-04-25T05:12:18.567Z,9.97
2023-04-25T05:13:17.579Z,9.59
2023-04-25T05:14:17.524Z,9.72
2023-04-25T05:15:18.485Z,9.97
2023-04-25T05:16:18.511Z,9.51
2023-04-25T05:17:17.476Z,9.10
2023-04-25T05:18:18.452Z,9.21
2023-04-25T05:19:18.442Z,9.95
2023-04-25T05:20:18.474Z,10.49
2023-04-25T05:21:18.465Z,9.52
2023-04-25T05:22:18.462Z,9.89
2023-04-25T05:23:18.406Z,10.62
2023-04-25T05:24:17.978Z,10.33
2023-04-25T05:25:17.704Z,10.55
2023-04-25T05:26:17.538Z,10.47
2023-04-25T05:27:17.705Z,9.72
2023-04-25T05:28:17.510Z,9.75
2023-04-25T05:29:18.947Z,10.15
2023-04-25T05:31:36.791Z,10.30
2023-04-25T05:32:36.849Z,9.67
2023-04-25T05:33:36.542Z,9.67
2023-04-25T05:34:36.676Z,10.66
2023-04-25T05:35:38.027Z,9.74
2023-04-25T05:36:38.002Z,9.75
2023-04-25T05:37:37.838Z,9.75
2023-04-25T05:38:37.421Z,10.20
2023-04-25T05:40:56.543Z,10.51
2023-04-25T05:43:15.648Z,9.43
2023-04-25T05:44:16.628Z,9.35
2023-04-25T05:45:16.800Z,10.19
2023-04-25T05:47:35.018Z,9.69
2023-04-25T05:48:34.836Z,9.52
2023-04-25T05:49:35.990Z,9.78
2023-04-25T05:50:35.972Z,10.17
2023-04-25T05:51:35.018Z,9.40
2023-04-25T05:52:35.832Z,10.58
2023-04-25T05:53:35.758Z,9.02
2023-04-25T05:54:35.996Z,9.20
2023-04-25T05:55:34.749Z,9.45
2023-04-25T05:56:35.728Z,10.10
2023-04-25T05:57:35.724Z,9.75
2023-04-25T05:58:34.818Z,9.67
2023-04-25T05:59:35.714Z,9.76
2023-04-25T06:00:34.973Z,10.01
2023-04-25T06:01:35.040Z,10.76
2023-04-25T06:02:34.859Z,10.15
2023-04-25T06:03:35.850Z,8.90
2023-04-25T06:04:36.034Z,9.31
2023-04-25T06:05:35.941Z,10.33
2023-04-25T06:06:35.945Z,9.92
2023-04-25T06:07:34.960Z,10.53
2023-04-25T06:08:35.489Z,9.59
2023-04-25T06:09:36.119Z,9.09
2023-04-25T06:10:35.116Z,9.08
2023-04-25T06:11:36.205Z,9.79
2023-04-25T06:12:36.137Z,9.55
2023-04-25T06:13:36.246Z,8.65
2023-04-25T06:15:54.349Z,8.67
2023-04-25T06:16:55.313Z,9.37
2023-04-25T06:17:55.287Z,7.95
2023-04-25T06:18:55.280Z,8.11
2023-04-25T06:19:55.234Z,8.35
2023-04-25T06:20:55.228Z,9.15
2023-04-25T06:21:55.290Z,8.47
2023-04-25T06:22:55.268Z,8.67
2023-04-25T06:23:55.220Z,8.70
2023-04-25T06:24:54.198Z,7.90
2023-04-25T06:25:55.172Z,7.89
2023-04-25T06:26:54.179Z,9.02
2023-04-25T06:27:54.215Z,8.72
2023-04-25T06:28:55.177Z,8.19
2023-04-25T06:29:54.138Z,7.98
2023-04-25T06:30:55.162Z,7.74
2023-04-25T06:31:54.169Z,7.82
2023-04-25T06:32:54.301Z,7.98
2023-04-25T06:33:55.137Z,6.88
2023-04-25T06:34:55.110Z,7.83
2023-04-25T06:35:54.105Z,8.80
2023-04-25T06:36:54.193Z,9.52
2023-04-25T06:37:55.237Z,10.15
2023-04-25T06:38:54.247Z,9.61
2023-04-25T06:39:54.343Z,10.11
2023-04-25T06:40:54.339Z,8.51
2023-04-25T06:41:55.369Z,9.42
2023-04-25T06:42:55.454Z,9.78
2023-04-25T06:43:55.482Z,9.13
2023-04-25T06:44:54.549Z,7.48
2023-04-25T06:45:54.481Z,8.03
2023-04-25T06:46:55.567Z,7.56
2023-04-25T06:47:55.604Z,9.10
2023-04-25T06:48:55.578Z,7.83
2023-04-25T06:49:55.622Z,7.86
2023-04-25T06:50:55.661Z,7.99
2023-04-25T06:51:55.960Z,8.74
2023-04-25T06:52:55.695Z,8.39
2023-04-25T06:53:55.725Z,9.41
2023-04-25T06:54:55.903Z,9.09
2023-04-25T06:55:55.636Z,8.89
2023-04-25T06:57:00.618Z,8.81
2023-04-25T06:59:32.431Z,25.03
2023-04-25T07:00:29.063Z,8.95
2023-04-25T07:01:29.825Z,9.09
2023-04-25T07:03:47.884Z,8.07
2023-04-25T07:04:49.831Z,8.67
2023-04-25T07:07:10.078Z,9.70
2023-04-25T07:09:39.804Z,8.91
2023-04-25T07:10:27.841Z,8.99
2023-04-25T07:12:45.983Z,8.87
2023-04-25T07:15:05.065Z,9.48
2023-04-25T07:16:17.030Z,9.60
2023-04-25T07:17:06.095Z,10.45
2023-04-25T07:18:06.462Z,10.31
2023-04-25T07:20:25.804Z,12.47
2023-04-25T07:22:44.640Z,17.28
2023-04-25T07:23:45.225Z,10.25
2023-04-25T07:26:15.311Z,21.34
2023-04-25T07:29:01.814Z,12.94
2023-04-25T07:31:21.621Z,9.97
2023-04-25T07:32:22.301Z,9.67
2023-04-25T07:33:21.489Z,9.12
2023-04-25T07:35:44.498Z,7.94
2023-04-25T07:36:41.110Z,9.41
2023-04-25T07:39:03.082Z,9.76
2023-04-25T07:41:19.095Z,8.10
2023-04-25T07:42:20.069Z,7.60
2023-04-25T07:43:19.970Z,6.79
2023-04-25T07:44:20.082Z,6.76
2023-04-25T07:45:18.880Z,6.45
2023-04-25T07:46:19.775Z,6.79
2023-04-25T07:47:19.970Z,6.91
2023-04-25T07:48:18.758Z,7.74
2023-04-25T07:49:19.732Z,7.74
2023-04-25T07:50:18.727Z,8.45
2023-04-25T07:51:18.687Z,8.16
2023-04-25T07:52:18.985Z,8.99
2023-04-25T07:53:19.806Z,8.46
2023-04-25T07:54:19.689Z,9.84
2023-04-25T07:55:19.827Z,10.70
2023-04-25T07:56:19.068Z,13.01
2023-04-25T07:58:37.960Z,9.66
2023-04-25T07:59:38.905Z,10.31
2023-04-25T08:00:38.122Z,9.24
2023-04-25T08:01:37.871Z,8.58
2023-04-25T08:02:38.041Z,8.53
2023-04-25T08:03:38.195Z,7.49
2023-04-25T08:04:38.978Z,7.05
2023-04-25T08:05:38.894Z,8.19
2023-04-25T08:06:39.311Z,8.12
2023-04-25T08:07:39.613Z,6.70
2023-04-25T08:08:38.796Z,5.93
2023-04-25T08:09:38.821Z,6.85
2023-04-25T08:10:38.783Z,7.36
2023-04-25T08:11:37.781Z,7.82
2023-04-25T08:12:38.759Z,6.82
2023-04-25T08:13:37.993Z,6.35
2023-04-25T08:14:37.762Z,5.81
2023-04-25T08:15:38.848Z,5.87
2023-04-25T08:16:38.751Z,5.45
2023-04-25T08:17:38.768Z,5.72
2023-04-25T08:18:37.792Z,5.26
2023-04-25T08:19:37.700Z,5.57
2023-04-25T08:20:37.684Z,5.18
2023-04-25T08:21:38.705Z,6.48
2023-04-25T08:22:37.743Z,7.37
2023-04-25T08:23:37.778Z,7.72
2023-04-25T08:24:39.457Z,7.84
2023-04-25T08:25:37.790Z,7.43
2023-04-25T08:26:38.850Z,5.93
2023-04-25T08:27:38.878Z,6.90
2023-04-25T08:28:38.900Z,6.20
2023-04-25T08:29:38.940Z,6.74
2023-04-25T08:30:38.958Z,6.53
2023-04-25T08:31:38.027Z,5.83
2023-04-25T08:32:38.020Z,6.60
2023-04-25T08:33:39.039Z,5.73
2023-04-25T08:34:39.357Z,5.81
2023-04-25T08:35:38.087Z,6.40
2023-04-25T08:37:57.999Z,5.81
2023-04-25T08:38:58.830Z,5.97
2023-04-25T08:39:57.729Z,6.32
2023-04-25T08:40:58.658Z,5.86
2023-04-25T08:41:57.651Z,6.01
2023-04-25T08:42:58.355Z,6.54
2023-04-25T08:43:58.637Z,5.58
2023-04-25T08:44:58.635Z,6.18
2023-04-25T08:45:58.658Z,6.02
2023-04-25T08:46:57.644Z,6.42
2023-04-25T08:47:57.710Z,6.94
2023-04-25T08:48:58.265Z,7.16
2023-04-25T08:49:57.627Z,6.91
2023-04-25T08:50:58.624Z,5.64
2023-04-25T08:51:57.592Z,5.80
2023-04-25T08:52:58.606Z,6.14
2023-04-25T08:53:58.844Z,7.14
2023-04-25T08:54:58.555Z,6.11
2023-04-25T08:55:58.571Z,6.40
2023-04-25T08:56:58.561Z,6.12
2023-04-25T08:57:57.833Z,5.71
2023-04-25T08:58:57.552Z,6.01
2023-04-25T08:59:58.553Z,5.96
2023-04-25T09:00:57.534Z,6.66
2023-04-25T09:01:57.585Z,6.12
2023-04-25T09:02:58.627Z,6.99
2023-04-25T09:03:58.761Z,6.75
2023-04-25T09:04:58.535Z,5.98
2023-04-25T09:05:58.717Z,7.06
2023-04-25T09:06:58.696Z,5.81
2023-04-25T09:07:57.529Z,6.29
2023-04-25T09:08:57.646Z,5.77
2023-04-25T09:09:58.578Z,5.51
2023-04-25T09:10:58.619Z,6.35
2023-04-25T09:11:57.695Z,5.59
2023-04-25T09:12:58.669Z,6.55
2023-04-25T09:13:58.720Z,5.36
2023-04-25T09:14:58.772Z,5.46
2023-04-25T09:15:58.876Z,6.04
2023-04-25T09:16:58.879Z,6.00
2023-04-25T09:17:57.875Z,5.03
2023-04-25T09:18:58.901Z,5.52
2023-04-25T09:19:57.966Z,4.57
2023-04-25T09:21:01.821Z,4.96
2023-04-25T09:21:58.963Z,5.56
2023-04-25T09:22:58.944Z,5.72
2023-04-25T09:23:57.944Z,5.39
2023-04-25T09:24:57.937Z,5.15
2023-04-25T09:25:57.948Z,4.79
2023-04-25T09:26:58.938Z,4.50
2023-04-25T09:27:58.947Z,3.74
2023-04-25T09:28:57.944Z,4.54
2023-04-25T09:29:58.917Z,3.20
2023-04-25T09:30:58.901Z,2.62
2023-04-25T09:31:57.974Z,3.38
2023-04-25T09:32:59.433Z,3.87
2023-04-25T09:33:58.124Z,3.11
2023-04-25T09:34:58.905Z,3.40
2023-04-25T09:35:58.869Z,2.91
2023-04-25T09:36:57.878Z,3.45
2023-04-25T09:37:57.908Z,3.01
2023-04-25T09:38:58.861Z,4.05
2023-04-25T09:39:57.837Z,3.38
2023-04-25T09:40:58.843Z,3.28
2023-04-25T09:41:59.149Z,3.32
2023-04-25T09:42:58.863Z,3.33
2023-04-25T09:43:58.049Z,3.39
2023-04-25T09:44:57.807Z,3.10
2023-04-25T09:45:59.260Z,3.02
2023-04-25T09:46:58.801Z,3.79
2023-04-25T09:47:59.007Z,3.09
2023-04-25T09:48:58.859Z,3.18
2023-04-25T09:49:59.050Z,3.26
2023-04-25T09:50:57.893Z,2.96
2023-04-25T09:51:58.763Z,3.03
2023-04-25T09:53:01.099Z,3.10
2023-04-25T09:53:57.730Z,3.39
2023-04-25T09:54:58.753Z,2.73
2023-04-25T09:55:58.766Z,2.73
2023-04-25T09:56:58.958Z,5.28
2023-04-25T09:57:58.754Z,4.00
2023-04-25T09:58:58.781Z,2.69
2023-04-25T09:59:58.912Z,3.09
2023-04-25T10:00:58.958Z,2.69
2023-04-25T10:01:58.710Z,2.54
2023-04-25T10:02:59.160Z,7.92
2023-04-25T10:05:17.269Z,3.15
2023-04-25T10:06:17.548Z,2.45
2023-04-25T10:07:17.089Z,5.08
2023-04-25T10:08:18.206Z,6.31
2023-04-25T10:09:17.200Z,3.05
2023-04-25T10:10:17.034Z,2.40
2023-04-25T10:11:18.138Z,6.53
2023-04-25T10:12:18.211Z,7.51
2023-04-25T10:13:17.096Z,9.76
2023-04-25T10:14:18.176Z,5.91
2023-04-25T10:15:18.120Z,7.01
2023-04-25T10:16:18.568Z,7.45
2023-04-25T10:17:17.005Z,4.02
2023-04-25T10:18:16.979Z,3.28
2023-04-25T10:19:18.007Z,3.64
2023-04-25T10:20:17.982Z,6.86
2023-04-25T10:21:17.986Z,5.81
2023-04-25T10:22:18.012Z,7.20
2023-04-25T10:23:17.461Z,5.56
2023-04-25T10:24:17.958Z,8.00
2023-04-25T10:25:18.009Z,6.75
2023-04-25T10:26:17.995Z,8.69
2023-04-25T10:27:18.001Z,10.62
2023-04-25T10:28:17.953Z,6.73
2023-04-25T10:29:17.920Z,7.66
2023-04-25T10:30:17.961Z,6.13
2023-04-25T10:31:17.097Z,5.02
2023-04-25T10:32:17.978Z,3.90
2023-04-25T10:33:17.867Z,3.73
2023-04-25T10:34:17.962Z,9.28
2023-04-25T10:35:17.977Z,6.23
2023-04-25T10:36:17.898Z,3.38
2023-04-25T10:38:36.421Z,5.22
2023-04-25T10:39:37.286Z,4.01
2023-04-25T10:40:37.508Z,5.29
2023-04-25T10:41:36.289Z,4.09
2023-04-25T10:42:36.239Z,4.17
2023-04-25T10:43:37.655Z,3.79
2023-04-25T10:44:37.221Z,3.40
2023-04-25T10:45:37.222Z,4.10
2023-04-25T10:46:37.355Z,3.57
2023-04-25T10:47:37.255Z,3.45
2023-04-25T10:48:37.596Z,3.29
2023-04-25T10:49:37.202Z,22.68
2023-04-25T10:50:37.305Z,5.51
2023-04-25T10:51:47.259Z,3.54
2023-04-25T10:52:37.417Z,3.60
2023-04-25T10:53:37.164Z,13.02
2023-04-25T10:54:37.305Z,4.99
2023-04-25T10:55:36.159Z,12.77
2023-04-25T10:56:44.694Z,6.01
2023-04-25T10:58:55.671Z,4.14
2023-04-25T10:59:56.339Z,2.95
2023-04-25T11:02:14.800Z,2.90
2023-04-25T11:03:15.619Z,3.32
2023-04-25T11:04:15.807Z,3.85
2023-04-25T11:05:15.622Z,3.24
2023-04-25T11:06:15.758Z,3.69
2023-04-25T11:07:14.569Z,3.99
2023-04-25T11:08:15.751Z,5.11
2023-04-25T11:09:14.562Z,5.23
2023-04-25T11:10:14.523Z,5.05
2023-04-25T11:11:15.473Z,5.81
2023-04-25T11:12:15.435Z,4.36
2023-04-25T11:13:15.414Z,3.94
2023-04-25T11:14:15.462Z,4.09
2023-04-25T11:15:15.412Z,3.55
2023-04-25T11:16:23.592Z,2.87
2023-04-25T11:17:15.525Z,3.28
2023-04-25T11:18:14.426Z,3.60
2023-04-25T11:19:15.423Z,3.93
2023-04-25T11:20:14.371Z,3.18
2023-04-25T11:21:15.360Z,2.92
2023-04-25T11:22:15.360Z,2.84
2023-04-25T11:23:15.370Z,1.69
2023-04-25T11:24:14.345Z,2.03
2023-04-25T11:25:15.347Z,1.55
2023-04-25T11:26:15.541Z,1.81
2023-04-25T11:27:15.316Z,2.10
2023-04-25T11:28:15.372Z,1.99
2023-04-25T11:29:15.297Z,4.81
2023-04-25T11:30:14.319Z,3.24
2023-04-25T11:31:14.300Z,2.33
2023-04-25T11:32:14.382Z,1.74
2023-04-25T11:33:15.392Z,2.40
2023-04-25T11:34:14.376Z,3.10
2023-04-25T11:35:15.393Z,2.12
2023-04-25T11:36:14.505Z,2.21
2023-04-25T11:37:14.444Z,3.35
2023-04-25T11:38:14.874Z,2.62
2023-04-25T11:39:16.453Z,2.58
2023-04-25T11:40:15.507Z,2.24
2023-04-25T11:41:15.538Z,2.42
2023-04-25T11:42:15.594Z,3.46
2023-04-25T11:43:15.587Z,3.77
2023-04-25T11:44:14.621Z,1.66
2023-04-25T11:45:14.739Z,1.81
2023-04-25T11:46:15.740Z,1.85
2023-04-25T11:47:14.702Z,2.56
2023-04-25T11:48:15.007Z,2.15
2023-04-25T11:49:15.821Z,1.83
2023-04-25T11:50:14.821Z,1.51
2023-04-25T11:51:14.847Z,1.68
2023-04-25T11:52:14.921Z,1.45
2023-04-25T11:53:15.863Z,1.51
2023-04-25T11:54:14.881Z,1.48
2023-04-25T11:55:15.939Z,2.16
2023-04-25T11:56:15.913Z,1.63
2023-04-25T12:19:42.822Z,12.76
2023-04-25T12:20:43.788Z,2.15
2023-04-25T12:21:54.396Z,1.81
2023-04-25T12:22:43.504Z,2.06
2023-04-25T12:23:43.441Z,2.29
2023-04-25T12:24:43.451Z,1.81
2023-04-25T12:25:42.500Z,2.05
2023-04-25T12:26:42.439Z,1.85
2023-04-25T12:27:43.391Z,2.42
2023-04-25T12:28:43.443Z,2.86
2023-04-25T12:29:49.911Z,1.88
2023-04-25T12:30:43.450Z,2.30
2023-04-25T12:31:42.516Z,3.26
2023-04-25T12:32:42.408Z,1.70
2023-04-25T12:33:42.454Z,1.97
2023-04-25T12:34:43.358Z,1.75
2023-04-25T12:35:44.358Z,1.45
2023-04-25T12:36:42.358Z,1.30
2023-04-25T12:37:42.337Z,1.34
2023-04-25T12:38:43.395Z,1.43
2023-04-25T12:39:42.347Z,1.57
2023-04-25T12:40:42.324Z,1.74
2023-04-25T12:41:43.401Z,1.69
2023-04-25T12:42:42.333Z,2.04
2023-04-25T12:43:43.340Z,1.77
2023-04-25T12:44:42.629Z,1.84
2023-04-25T12:45:42.276Z,1.57
2023-04-25T12:46:43.324Z,1.34
2023-04-25T12:47:42.335Z,1.63
2023-04-25T12:48:42.273Z,1.96
2023-04-25T12:49:42.307Z,1.55
2023-04-25T12:50:43.410Z,2.09
2023-04-25T12:51:43.451Z,1.70
2023-04-25T12:52:42.599Z,1.70
2023-04-25T12:53:43.446Z,1.79
2023-04-25T12:54:42.545Z,1.94
2023-04-25T12:55:43.485Z,1.25
2023-04-25T12:56:43.599Z,1.63
2023-04-25T12:57:42.523Z,2.06
2023-04-25T12:58:43.571Z,1.90
2023-04-25T12:59:42.630Z,1.50
2023-04-25T13:00:43.696Z,2.06
2023-04-25T13:01:43.765Z,2.46
2023-04-25T13:02:43.803Z,1.68
2023-04-25T13:03:42.962Z,1.40
2023-04-25T13:04:43.769Z,1.57
2023-04-25T13:05:43.826Z,1.97
2023-04-25T13:06:43.802Z,1.26
2023-04-25T13:07:42.959Z,1.36
2023-04-25T13:08:43.924Z,1.93
2023-04-25T13:09:43.885Z,1.46
2023-04-25T13:10:43.935Z,1.66
2023-04-25T13:11:43.949Z,1.27
2023-04-25T13:12:43.022Z,1.44
2023-04-25T13:13:43.069Z,1.44
2023-04-25T13:14:43.249Z,1.38
2023-04-25T13:15:43.140Z,1.42
2023-04-25T13:16:44.272Z,1.35
2023-04-25T13:17:44.277Z,1.48
2023-04-25T13:18:44.301Z,1.37
2023-04-25T13:19:43.323Z,1.69
2023-04-25T13:20:44.397Z,1.29
2023-04-25T13:21:43.455Z,1.66
2023-04-25T13:22:44.444Z,1.82
2023-04-25T13:23:44.552Z,1.80
2023-04-25T13:24:44.571Z,1.46
2023-04-25T13:25:44.605Z,1.68
2023-04-25T13:26:43.761Z,1.74
2023-04-25T13:27:43.719Z,1.40
2023-04-25T13:28:44.982Z,1.61
2023-04-25T13:29:44.830Z,1.29
2023-04-25T13:30:44.873Z,1.57
2023-04-25T13:31:44.879Z,1.34
2023-04-25T13:32:43.984Z,2.79
2023-04-25T13:33:44.953Z,1.45
2023-04-25T13:34:44.962Z,1.77
2023-04-25T13:35:45.017Z,1.31
2023-04-25T13:36:44.024Z,1.57
2023-04-25T13:37:45.006Z,0.93
2023-04-25T13:38:44.118Z,1.06
2023-04-25T13:39:45.111Z,1.35
2023-04-25T13:40:45.145Z,1.28
2023-04-25T13:41:44.173Z,1.15
2023-04-25T13:42:45.190Z,1.64
2023-04-25T13:43:45.230Z,1.50
2023-04-25T13:44:45.495Z,1.19
2023-04-25T13:45:44.350Z,0.83
2023-04-25T13:46:47.456Z,0.95
2023-04-25T13:47:45.352Z,1.07
2023-04-25T13:48:44.330Z,0.96
2023-04-25T13:49:45.375Z,0.81
2023-04-25T13:50:44.328Z,1.00
2023-04-25T13:51:44.308Z,0.96
2023-04-25T13:52:45.329Z,1.27
2023-04-25T13:53:45.347Z,1.14
2023-04-25T13:54:45.288Z,1.07
2023-04-25T13:55:45.311Z,1.27
2023-04-25T13:56:45.370Z,1.56
2023-04-25T13:57:45.241Z,0.86
2023-04-25T13:58:45.302Z,1.14
2023-04-25T13:59:44.289Z,1.05
2023-04-25T14:00:45.256Z,1.02
2023-04-25T14:01:45.278Z,1.20
2023-04-25T14:02:45.314Z,1.27
2023-04-25T14:03:45.293Z,1.52
2023-04-25T14:04:44.319Z,1.34
2023-04-25T14:05:45.247Z,1.25
2023-04-25T14:06:44.210Z,1.01
2023-04-25T14:07:45.251Z,1.51
2023-04-25T14:08:45.504Z,0.53
2023-04-25T14:09:44.396Z,0.65
2023-04-25T14:10:45.497Z,0.58
2023-04-25T14:11:45.215Z,0.75
2023-04-25T14:12:44.201Z,0.73
2023-04-25T14:13:44.186Z,0.71
2023-04-25T14:14:44.223Z,0.96
2023-04-25T14:15:44.195Z,0.54
2023-04-25T14:16:45.152Z,0.66
2023-04-25T14:17:44.204Z,0.55
2023-04-25T14:18:44.119Z,0.54
2023-04-25T14:19:44.136Z,0.44
2023-04-25T14:20:45.146Z,0.55
2023-04-25T14:21:45.084Z,0.85
2023-04-25T14:22:44.107Z,1.04
2023-04-25T14:23:44.144Z,0.47
2023-04-25T14:24:45.101Z,0.88
2023-04-25T14:25:44.098Z,0.57
2023-04-25T14:26:45.093Z,0.42
2023-04-25T14:27:45.053Z,0.59
2023-04-25T14:28:45.035Z,0.49
2023-04-25T14:29:44.098Z,0.47
2023-04-25T14:30:45.053Z,0.39
2023-04-25T14:33:04.525Z,12.76
2023-04-25T14:34:04.306Z,0.60
2023-04-25T14:35:05.473Z,0.46
2023-04-25T14:36:05.264Z,0.50
2023-04-25T14:37:04.198Z,0.93
2023-04-25T14:38:05.235Z,0.69
2023-04-25T14:39:04.166Z,0.39
2023-04-25T14:40:05.180Z,0.64
2023-04-25T14:41:04.216Z,0.70
2023-04-25T14:42:04.210Z,0.55
2023-04-25T14:43:04.207Z,0.48
2023-04-25T14:44:04.138Z,0.58
2023-04-25T14:45:05.198Z,0.37
2023-04-25T14:46:04.184Z,0.62
2023-04-25T14:47:04.215Z,0.44
2023-04-25T14:48:05.160Z,0.44
2023-04-25T14:49:04.192Z,0.59
2023-04-25T14:50:05.239Z,0.87
2023-04-25T14:51:04.128Z,0.57
2023-04-25T14:52:04.125Z,0.63
2023-04-25T14:53:05.144Z,0.67
2023-04-25T14:54:04.046Z,0.77
2023-04-25T14:55:05.130Z,0.51
2023-04-25T14:56:04.144Z,0.83
2023-04-25T14:57:05.127Z,0.46
2023-04-25T14:58:04.145Z,0.29
2023-04-25T14:59:04.230Z,0.61
2023-04-25T15:00:05.205Z,0.43
2023-04-25T15:01:04.273Z,0.49
2023-04-25T15:02:05.303Z,0.32
2023-04-25T15:03:05.525Z,0.33
2023-04-25T15:04:05.475Z,0.53
2023-04-25T15:05:04.516Z,0.75
2023-04-25T15:06:04.463Z,0.50
2023-04-25T15:07:05.505Z,0.51
2023-04-25T15:08:05.481Z,0.52
2023-04-25T15:09:05.536Z,0.47
2023-04-25T15:10:05.548Z,0.63
2023-04-25T15:11:04.631Z,0.47
2023-04-25T15:12:04.584Z,0.35
2023-04-25T15:13:05.620Z,0.39
2023-04-25T15:14:04.693Z,0.62
2023-04-25T15:15:05.851Z,0.58
2023-04-25T15:16:05.813Z,0.43
2023-04-25T15:17:05.045Z,0.43
